Time;durP1;ratioP1;P1;durP2;ratioP2;P2;SDS_P1;SDS_P2;PMS_P1;PMS_P2;Temp;Humidity;BMP_temperature;BMP_pressure;BME280_temperature;BME280_humidity;BME280_pressure;Samples;Min_cycle;Max_cycle;Signal;HPM_P1;HPM_P2
2021/05/17 00:02:21;;;;;;;;;;;;;;;18.80;50.47;98061.13;1830501;78;20126;-57
2021/05/17 00:04:56;;;;;;;;;;;;;;;18.83;50.66;98057.09;1873467;76;20469;-59
2021/05/17 00:07:30;;;;;;;;;;;;;;;18.80;50.74;98054.59;1873510;76;20209;-59
2021/05/17 00:10:08;;;;;;;;;;;;;;;18.79;50.83;98056.80;1873487;76;20098;-60
2021/05/17 00:12:43;;;;;;;;;;;;;;;18.78;50.91;98053.80;1873298;76;20101;-63
2021/05/17 00:15:20;;;;;;;;;;;;;;;18.77;51.09;98048.15;1892783;76;20097;-59
2021/05/17 00:17:55;;;;;;;;;;;;;;;18.77;50.92;98044.23;1873479;76;20212;-62
2021/05/17 00:20:31;;;;;;;;;;;;;;;18.77;51.17;98041.61;1873240;76;20208;-63
2021/05/17 00:23:06;;;;;;;;;;;;;;;18.76;51.18;98045.15;1873506;76;20209;-63
2021/05/17 00:25:42;;;;;;;;;;;;;;;18.76;51.29;98043.84;1873557;76;20216;-60
2021/05/17 00:28:17;;;;;;;;;;;;;;;18.75;51.31;98041.24;1873531;76;20208;-59
2021/05/17 00:30:53;;;;;;;;;;;;;;;18.76;51.12;98037.31;1873279;76;20101;-59
2021/05/17 00:33:28;;;;;;;;;;;;;;;18.79;50.82;98025.42;1873303;76;20454;-60
2021/05/17 00:36:17;;;;;;;;;;;;;;;18.79;50.71;98028.04;1830425;78;20143;-59
2021/05/17 00:38:52;;;;;;;;;;;;;;;18.86;50.92;98036.06;1892880;76;20215;-60
2021/05/17 00:41:28;;;;;;;;;;;;;;;18.82;51.13;98035.77;1873571;76;20212;-59
2021/05/17 00:44:03;;;;;;;;;;;;;;;18.83;51.15;98031.41;1873455;76;20355;-59
2021/05/17 00:46:38;;;;;;;;;;;;;;;18.79;51.39;98020.20;1873496;76;20097;-60
2021/05/17 00:49:13;;;;;;;;;;;;;;;18.77;51.50;98031.16;1873468;76;20212;-59
2021/05/17 00:51:48;;;;;;;;;;;;;;;18.74;51.92;98035.17;1873446;76;20212;-60
2021/05/17 00:54:23;;;;;;;;;;;;;;;18.70;51.85;98032.72;1873557;76;20216;-59
2021/05/17 00:56:58;;;;;;;;;;;;;;;18.68;51.98;98038.02;1873398;76;20247;-57
2021/05/17 00:59:33;;;;;;;;;;;;;;;18.65;52.56;98035.52;1873463;76;20213;-58
2021/05/17 01:02:08;;;;;;;;;;;;;;;18.62;52.82;98030.38;1892997;76;20449;-58
2021/05/17 01:05:05;;;;;;;;;;;;;;;18.52;53.18;98034.24;1861448;77;20213;-58
2021/05/17 01:07:46;;;;;;;;;;;;;;;18.51;53.76;98029.48;1873335;76;20097;-60
2021/05/17 01:10:20;;;;;;;;;;;;;;;18.49;53.97;98027.83;1892745;76;20100;-61
2021/05/17 01:12:56;;;;;;;;;;;;;;;18.46;54.18;98022.26;1892775;76;20097;-60
2021/05/17 01:15:33;;;;;;;;;;;;;;;18.43;54.50;98027.59;1892713;76;20101;-60
2021/05/17 01:18:09;;;;;;;;;;;;;;;18.38;55.18;98008.17;1870414;76;20455;-58
2021/05/17 01:20:48;;;;;;;;;;;;;;;18.35;55.38;97999.14;1873217;76;20355;-59
2021/05/17 01:26:12;;;;;;;;;;;;;;;18.19;56.69;97987.52;1830397;78;20434;-59
2021/05/17 01:28:48;;;;;;;;;;;;;;;18.15;56.79;97998.53;1892897;76;20461;-57
2021/05/17 01:31:23;;;;;;;;;;;;;;;18.10;56.71;98000.92;1873487;76;20204;-59
2021/05/17 01:33:58;;;;;;;;;;;;;;;18.07;56.85;98001.03;1873464;76;20216;-61
2021/05/17 01:36:34;;;;;;;;;;;;;;;18.05;57.43;98010.67;1892797;76;20212;-62
2021/05/17 01:39:09;;;;;;;;;;;;;;;18.02;57.34;98019.92;1873484;76;20212;-58
2021/05/17 01:41:56;;;;;;;;;;;;;;;17.96;57.38;98030.09;1830255;78;20155;-57
2021/05/17 01:44:32;;;;;;;;;;;;;;;17.97;58.44;98032.66;1873489;76;20204;-61
2021/05/17 01:47:08;;;;;;;;;;;;;;;17.92;59.13;98025.90;1873518;76;20102;-59
2021/05/17 01:49:43;;;;;;;;;;;;;;;17.87;59.30;98031.27;1873491;76;20093;-58
2021/05/17 01:52:20;;;;;;;;;;;;;;;17.81;59.74;98021.05;1873451;76;20216;-60
2021/05/17 01:54:55;;;;;;;;;;;;;;;17.74;59.70;98009.06;1873494;76;20098;-60
2021/05/17 01:57:41;;;;;;;;;;;;;;;17.65;60.52;97999.77;1830248;78;20142;-61
2021/05/17 02:00:17;;;;;;;;;;;;;;;17.58;60.18;98004.81;1892779;76;20097;-59
2021/05/17 02:02:52;;;;;;;;;;;;;;;17.54;59.83;98013.17;1873468;76;20355;-59
2021/05/17 02:05:28;;;;;;;;;;;;;;;17.54;59.39;98018.39;1873482;76;20093;-60
2021/05/17 02:08:09;;;;;;;;;;;;;;;17.56;59.45;98014.44;1892841;76;20476;-61
2021/05/17 02:10:43;;;;;;;;;;;;;;;17.54;59.45;98013.63;1873447;76;20101;-59
2021/05/17 02:13:32;;;;;;;;;;;;;;;17.47;60.34;98009.05;1830266;77;20139;-60
2021/05/17 02:16:11;;;;;;;;;;;;;;;17.49;62.44;98022.91;1892788;76;20097;-59
2021/05/17 02:18:47;;;;;;;;;;;;;;;17.43;63.05;98025.72;1892757;76;20101;-60
2021/05/17 02:21:34;;;;;;;;;;;;;;;17.23;63.38;98026.80;1864218;77;20130;-59
2021/05/17 02:24:11;;;;;;;;;;;;;;;17.02;63.90;98029.16;1873479;76;20208;-58
2021/05/17 02:26:46;;;;;;;;;;;;;;;16.91;64.36;98023.39;1893028;76;20449;-62
2021/05/17 02:29:21;;;;;;;;;;;;;;;16.78;64.64;98009.88;1873507;76;20098;-59
2021/05/17 02:31:57;;;;;;;;;;;;;;;16.69;64.99;98003.16;1873253;76;20101;-60
2021/05/17 02:34:32;;;;;;;;;;;;;;;16.70;65.41;97990.52;1873591;76;20216;-61
2021/05/17 02:37:07;;;;;;;;;;;;;;;16.70;66.00;97981.41;1873565;76;20208;-61
2021/05/17 02:39:42;;;;;;;;;;;;;;;16.68;65.81;97962.81;1892826;76;20207;-59
2021/05/17 02:42:18;;;;;;;;;;;;;;;16.66;69.12;97955.06;1873492;76;20097;-57
2021/05/17 02:44:56;;;;;;;;;;;;;;;16.54;69.67;97955.42;1873252;76;20466;-57
2021/05/17 02:47:34;;;;;;;;;;;;;;;16.48;70.15;97954.28;1873384;76;20098;-57
2021/05/17 02:50:12;;;;;;;;;;;;;;;16.41;70.61;97948.83;1892747;76;20211;-57
2021/05/17 02:52:47;;;;;;;;;;;;;;;16.33;71.51;97948.20;1873460;76;20216;-60
2021/05/17 02:55:23;;;;;;;;;;;;;;;16.24;71.78;97942.37;1873407;76;20098;-58
2021/05/17 02:58:03;;;;;;;;;;;;;;;16.21;73.34;97938.56;1873576;76;20339;-59
2021/05/17 03:00:39;;;;;;;;;;;;;;;16.10;74.51;97937.98;1873278;76;20360;-57
2021/05/17 03:03:15;;;;;;;;;;;;;;;16.00;73.83;97945.64;1873470;76;20216;-58
2021/05/17 03:05:53;;;;;;;;;;;;;;;15.99;73.77;97943.95;1873491;76;20455;-60
2021/05/17 03:08:30;;;;;;;;;;;;;;;16.01;74.31;97949.97;1873523;76;20101;-59
2021/05/17 03:11:06;;;;;;;;;;;;;;;16.01;73.99;97949.97;1876991;76;20387;-59
2021/05/17 03:13:41;;;;;;;;;;;;;;;16.03;72.34;97950.80;1859416;76;20229;-60
2021/05/17 03:16:16;;;;;;;;;;;;;;;16.06;72.16;97945.50;1855704;76;20234;-58
2021/05/17 03:18:53;;;;;;;;;;;;;;;16.09;72.12;97950.61;1857160;76;20117;-58
2021/05/17 03:21:30;;;;;;;;;;;;;;;16.11;72.60;97949.28;1855287;76;20117;-61
2021/05/17 03:24:05;;;;;;;;;;;;;;;16.11;73.33;97946.67;1846553;76;20188;-58
2021/05/17 03:26:41;;;;;;;;;;;;;;;16.11;73.17;97942.77;1866650;76;20466;-62
2021/05/17 03:29:16;;;;;;;;;;;;;;;16.09;73.07;97940.66;1852344;76;20116;-60
2021/05/17 03:32:01;;;;;;;;;;;;;;;16.01;72.78;97944.77;1818856;77;20143;-60
2021/05/17 03:34:35;;;;;;;;;;;;;;;16.01;73.91;97931.75;1868436;76;20570;-60
2021/05/17 03:37:10;;;;;;;;;;;;;;;15.96;74.68;97920.63;1856107;76;20116;-61
2021/05/17 03:39:45;;;;;;;;;;;;;;;15.89;75.38;97919.08;1856171;76;20119;-60
2021/05/17 03:42:20;;;;;;;;;;;;;;;15.82;75.47;97914.47;1864495;76;20324;-60
2021/05/17 03:45:09;;;;;;;;;;;;;;;15.71;75.08;97910.02;1849766;77;20154;-59
2021/05/17 03:47:44;;;;;;;;;;;;;;;15.71;75.52;97890.05;1873482;76;20458;-60
2021/05/17 03:50:19;;;;;;;;;;;;;;;15.69;75.83;97881.44;1892898;76;20093;-61
2021/05/17 03:53:04;;;;;;;;;;;;;;;15.60;77.23;97863.47;1852906;77;20160;-61
2021/05/17 03:55:39;;;;;;;;;;;;;;;15.56;77.27;97846.23;1859005;76;20184;-62
2021/05/17 03:58:19;;;;;;;;;;;;;;;15.50;77.53;97838.61;1853498;76;20287;-61
2021/05/17 04:00:57;;;;;;;;;;;;;;;15.43;77.50;97837.05;1868617;76;20377;-62
2021/05/17 04:03:42;;;;;;;;;;;;;;;15.33;78.69;97835.14;1840130;77;20229;-62
2021/05/17 04:06:23;;;;;;;;;;;;;;;15.30;79.76;97856.02;1854657;76;20443;-61
2021/05/17 04:14:39;;;;;;;;;;;;;;;15.32;78.94;97847.30;1862616;76;20227;-61
2021/05/17 04:17:25;;;;;;;;;;;;;;;15.26;79.22;97837.03;1826788;77;20165;-59
2021/05/17 04:19:59;;;;;;;;;;;;;;;15.24;80.51;97833.65;1858241;76;20228;-63
2021/05/17 04:22:34;;;;;;;;;;;;;;;15.22;79.96;97835.42;1855811;76;20116;-60
2021/05/17 04:25:10;;;;;;;;;;;;;;;15.26;80.32;97833.59;1853796;76;20115;-62
2021/05/17 04:27:44;;;;;;;;;;;;;;;15.26;80.70;97833.14;1855568;76;20116;-62
2021/05/17 04:30:29;;;;;;;;;;;;;;;15.22;81.58;97836.73;1815677;78;20129;-61
2021/05/17 04:33:04;;;;;;;;;;;;;;;15.26;82.10;97829.23;1855563;76;20120;-60
2021/05/17 04:35:38;;;;;;;;;;;;;;;15.26;82.57;97821.44;1868861;76;20118;-63
2021/05/17 04:38:24;;;;;;;;;;;;;;;15.23;82.82;97832.38;1832509;77;20125;-64
2021/05/17 04:40:58;;;;;;;;;;;;;;;15.32;82.91;97826.50;1864509;76;20230;-61
2021/05/17 04:43:33;;;;;;;;;;;;;;;15.37;83.23;97834.18;1853612;76;20113;-63
2021/05/17 04:46:07;;;;;;;;;;;;;;;15.46;83.04;97835.67;1856257;76;20113;-63
2021/05/17 04:48:49;;;;;;;;;;;;;;;15.50;82.81;97843.80;1858346;76;20117;-60
2021/05/17 04:51:22;;;;;;;;;;;;;;;15.53;82.49;97845.02;1861019;76;20229;-63
2021/05/17 04:54:03;;;;;;;;;;;;;;;15.59;82.17;97856.54;1867351;76;20292;-64
2021/05/17 04:56:37;;;;;;;;;;;;;;;15.68;82.04;97866.70;1860188;76;20111;-62
2021/05/17 04:59:12;;;;;;;;;;;;;;;15.75;82.01;97870.88;1856881;76;20222;-62
2021/05/17 05:01:46;;;;;;;;;;;;;;;15.82;81.80;97869.83;1854053;76;20376;-60
2021/05/17 05:04:20;;;;;;;;;;;;;;;15.82;81.71;97865.92;1868938;76;20114;-64
2021/05/17 05:06:55;;;;;;;;;;;;;;;15.86;81.69;97862.77;1856084;76;20234;-62
2021/05/17 05:09:29;;;;;;;;;;;;;;;15.88;81.68;97847.98;1857614;76;20116;-62
2021/05/17 05:12:04;;;;;;;;;;;;;;;15.86;81.97;97854.97;1858681;76;20113;-61
2021/05/17 05:14:39;;;;;;;;;;;;;;;15.85;82.21;97849.38;1855877;76;20116;-63
2021/05/17 05:17:24;;;;;;;;;;;;;;;15.83;82.26;97842.05;1816044;78;20264;-63
2021/05/17 05:19:59;;;;;;;;;;;;;;;15.91;82.35;97830.13;1858447;76;20162;-63
2021/05/17 05:22:35;;;;;;;;;;;;;;;15.95;82.69;97826.52;1862337;76;20230;-63
2021/05/17 05:25:11;;;;;;;;;;;;;;;16.00;83.08;97822.03;1858375;76;20113;-63
2021/05/17 05:27:49;;;;;;;;;;;;;;;16.01;82.83;97815.95;1849130;76;20364;-62
2021/05/17 05:33:17;;;;;;;;;;;;;;;16.03;83.27;97815.47;1858394;76;20117;-62
2021/05/17 05:35:52;;;;;;;;;;;;;;;15.95;83.40;97804.41;1858941;76;20184;-60
2021/05/17 05:38:26;;;;;;;;;;;;;;;15.90;84.05;97794.16;1873266;76;20228;-60
2021/05/17 05:41:00;;;;;;;;;;;;;;;15.87;83.91;97782.97;1873459;76;20098;-63
2021/05/17 05:43:35;;;;;;;;;;;;;;;15.88;84.39;97784.23;1873446;76;20098;-61
2021/05/17 05:46:10;;;;;;;;;;;;;;;15.91;84.56;97785.90;1873316;76;20347;-62
2021/05/17 05:48:49;;;;;;;;;;;;;;;15.95;84.83;97785.77;1868330;76;20112;-63
2021/05/17 05:51:34;;;;;;;;;;;;;;;15.95;84.87;97785.77;1830272;78;20253;-64
2021/05/17 05:54:09;;;;;;;;;;;;;;;16.06;85.28;97781.08;1892760;76;20096;-61
2021/05/17 05:56:44;;;;;;;;;;;;;;;16.09;85.11;97760.62;1869977;76;20164;-63
2021/05/17 05:59:18;;;;;;;;;;;;;;;16.05;85.36;97759.87;1867109;76;20111;-63
2021/05/17 06:01:53;;;;;;;;;;;;;;;16.03;85.44;97771.23;1854144;76;20364;-65
2021/05/17 06:04:28;;;;;;;;;;;;;;;16.03;85.42;97760.82;1859959;76;20119;-64
2021/05/17 06:07:03;;;;;;;;;;;;;;;15.98;85.54;97757.05;1848309;76;20369;-61
2021/05/17 06:09:38;;;;;;;;;;;;;;;15.95;85.70;97752.36;1857645;76;20947;-62
2021/05/17 06:12:14;;;;;;;;;;;;;;;15.91;85.80;97737.31;1846654;76;20190;-62
2021/05/17 06:14:53;;;;;;;;;;;;;;;15.96;85.94;97725.47;1865405;76;20145;-62
2021/05/17 06:17:24;;;;;;;;;;;;;;;15.96;85.79;97717.66;1865095;76;20370;-62
2021/05/17 06:19:59;;;;;;;;;;;;;;;15.97;85.84;97716.30;1852707;76;20401;-61
2021/05/17 06:22:36;;;;;;;;;;;;;;;15.98;85.63;97721.92;1850049;76;20180;-62
2021/05/17 06:25:13;;;;;;;;;;;;;;;15.97;85.62;97721.95;1863693;76;20298;-62
2021/05/17 06:27:48;;;;;;;;;;;;;;;16.01;85.71;97709.27;1847298;76;20120;-61
2021/05/17 06:30:30;;;;;;;;;;;;;;;16.02;85.87;97686.23;1856646;75;20366;-62
2021/05/17 06:33:05;;;;;;;;;;;;;;;16.03;85.95;97677.55;1873545;76;20168;-62
2021/05/17 06:35:45;;;;;;;;;;;;;;;16.04;86.24;97676.63;1855854;76;20317;-64
2021/05/17 06:38:16;;;;;;;;;;;;;;;16.05;86.59;97660.11;1840780;76;20115;-65
2021/05/17 06:40:53;;;;;;;;;;;;;;;16.14;86.52;97670.23;1853264;76;20385;-61
2021/05/17 06:43:39;;;;;;;;;;;;;;;16.24;86.18;97658.63;1820218;78;20125;-60
2021/05/17 06:46:33;;;;;;;;;;;;;;;16.49;85.37;97683.86;1862144;76;20150;-63
2021/05/17 06:49:09;;;;;;;;;;;;;;;16.68;84.67;97691.43;1855013;76;20114;-62
2021/05/17 06:51:44;;;;;;;;;;;;;;;16.86;84.00;97707.37;1857083;76;20124;-62
2021/05/17 06:54:23;;;;;;;;;;;;;;;16.95;83.90;97710.97;1857721;76;20169;-61
2021/05/17 06:57:13;;;;;;;;;;;;;;;17.00;83.37;97723.39;1854576;76;20370;-63
2021/05/17 07:02:20;;;;;;;;;;;;;;;17.04;82.60;97732.78;1858080;76;20306;-61
2021/05/17 07:04:57;;;;;;;;;;;;;;;17.13;82.30;97733.78;1859380;76;20113;-62
2021/05/17 07:13:17;;;;;;;;;;;;;;;17.29;81.12;97756.24;1852628;76;20116;-62
2021/05/17 07:15:58;;;;;;;;;;;;;;;17.39;80.83;97758.53;1853604;76;20123;-62
2021/05/17 07:18:33;;;;;;;;;;;;;;;17.39;80.68;97760.69;1855220;76;20381;-62
2021/05/17 07:23:45;;;;;;;;;;;;;;;17.48;79.99;97747.33;1854438;76;20209;-63
2021/05/17 07:26:22;;;;;;;;;;;;;;;17.54;79.57;97734.05;1872038;76;20102;-63
2021/05/17 07:29:04;;;;;;;;;;;;;;;17.56;79.43;97730.94;1873822;76;20232;-61
2021/05/17 07:31:39;;;;;;;;;;;;;;;17.61;79.54;97742.97;1856415;76;20237;-61
2021/05/17 07:34:35;;;;;;;;;;;;;;;17.71;79.40;97733.89;1862205;76;20422;-61
2021/05/17 07:37:10;;;;;;;;;;;;;;;17.79;79.17;97737.92;1858270;76;20111;-62
2021/05/17 07:39:45;;;;;;;;;;;;;;;17.92;78.77;97730.94;1873303;76;20101;-61
2021/05/17 07:42:19;;;;;;;;;;;;;;;18.07;78.14;97732.11;1892680;76;20473;-61
2021/05/17 07:44:53;;;;;;;;;;;;;;;18.27;77.94;97724.34;1892699;76;20097;-62
2021/05/17 07:47:26;;;;;;;;;;;;;;;18.66;77.04;97729.69;1856671;76;20226;-63
2021/05/17 07:50:01;;;;;;;;;;;;;;;19.08;75.55;97741.03;1861662;76;20217;-62
2021/05/17 07:52:37;;;;;;;;;;;;;;;19.39;73.84;97753.66;1865671;76;20395;-61
2021/05/17 07:55:13;;;;;;;;;;;;;;;19.80;72.18;97746.20;1857351;76;20117;-62
2021/05/17 07:57:48;;;;;;;;;;;;;;;20.58;69.97;97742.06;1849084;76;20115;-61
2021/05/17 08:00:24;;;;;;;;;;;;;;;21.40;67.82;97749.30;1850267;76;20117;-62
2021/05/17 08:03:00;;;;;;;;;;;;;;;21.88;64.88;97760.75;1861564;76;20374;-63
2021/05/17 08:05:35;;;;;;;;;;;;;;;22.10;63.63;97770.08;1873286;76;20097;-62
2021/05/17 08:08:09;;;;;;;;;;;;;;;21.92;62.97;97775.03;1892605;76;20100;-60
2021/05/17 08:10:44;;;;;;;;;;;;;;;21.73;63.43;97768.58;1860772;76;20235;-61
2021/05/17 08:13:18;;;;;;;;;;;;;;;21.84;63.35;97759.21;1857741;76;20227;-62
2021/05/17 08:15:53;;;;;;;;;;;;;;;21.69;62.96;97754.78;1873296;76;20147;-62
2021/05/17 08:18:27;;;;;;;;;;;;;;;21.50;63.93;97767.17;1873387;76;20212;-61
2021/05/17 08:21:02;;;;;;;;;;;;;;;21.47;63.87;97769.50;1873416;76;20212;-63
2021/05/17 08:23:37;;;;;;;;;;;;;;;21.32;63.44;97776.83;1873394;76;20097;-62
2021/05/17 08:26:11;;;;;;;;;;;;;;;21.23;63.77;97780.31;1873456;76;20098;-63
2021/05/17 08:28:57;;;;;;;;;;;;;;;21.03;64.12;97781.32;1830492;78;20134;-62
2021/05/17 08:31:31;;;;;;;;;;;;;;;21.01;64.45;97779.27;1892735;76;20096;-63
2021/05/17 08:34:07;;;;;;;;;;;;;;;20.94;64.25;97790.98;1873205;76;20145;-62
2021/05/17 08:36:47;;;;;;;;;;;;;;;20.92;64.44;97794.61;1892665;76;20088;-62
2021/05/17 08:39:22;;;;;;;;;;;;;;;20.78;64.56;97803.13;1863137;76;20371;-61
2021/05/17 08:41:58;;;;;;;;;;;;;;;20.62;64.94;97804.34;1850245;76;20377;-61
2021/05/17 08:44:36;;;;;;;;;;;;;;;20.62;65.23;97802.20;1873390;76;20098;-62
2021/05/17 08:47:10;;;;;;;;;;;;;;;20.62;64.85;97800.88;1870637;76;20223;-61
2021/05/17 08:49:45;;;;;;;;;;;;;;;20.49;65.25;97794.05;1870525;76;20118;-62
2021/05/17 08:52:32;;;;;;;;;;;;;;;20.30;65.73;97800.16;1829643;77;20129;-62
2021/05/17 08:55:08;;;;;;;;;;;;;;;20.25;66.28;97802.59;1871740;76;20457;-63
2021/05/17 08:57:44;;;;;;;;;;;;;;;20.20;66.12;97803.27;1872940;76;20212;-60
2021/05/17 09:00:31;;;;;;;;;;;;;;;20.18;66.27;97807.75;1829818;78;20151;-60
2021/05/17 09:03:06;;;;;;;;;;;;;;;20.34;66.38;97807.41;1873316;76;20098;-61
2021/05/17 09:05:44;;;;;;;;;;;;;;;20.45;65.43;97805.58;1861661;76;20112;-63
2021/05/17 09:08:18;;;;;;;;;;;;;;;20.58;64.92;97798.85;1859442;76;20112;-62
2021/05/17 09:10:52;;;;;;;;;;;;;;;20.83;64.38;97809.00;1873304;76;20212;-64
2021/05/17 09:13:26;;;;;;;;;;;;;;;21.02;62.93;97799.31;1873366;76;20101;-62
2021/05/17 09:16:01;;;;;;;;;;;;;;;21.38;62.75;97800.15;1892641;76;20097;-61
2021/05/17 09:18:55;;;;;;;;;;;;;;;21.54;61.30;97797.60;1865489;75;20505;-63
2021/05/17 09:22:01;;;;;;;;;;;;;;;21.37;61.34;97818.12;1832134;77;20431;-64
2021/05/17 09:24:52;;;;;;;;;;;;;;;21.01;61.99;97827.79;1847424;76;20120;-61
2021/05/17 09:27:30;;;;;;;;;;;;;;;20.81;62.73;97834.45;1873316;76;20102;-61
2021/05/17 09:30:16;;;;;;;;;;;;;;;20.60;63.32;97835.02;1829882;78;20241;-63
2021/05/17 09:32:51;;;;;;;;;;;;;;;20.44;64.33;97823.08;1857962;76;20119;-63
2021/05/17 09:35:32;;;;;;;;;;;;;;;20.25;64.94;97830.09;1871809;76;20165;-62
2021/05/17 09:38:22;;;;;;;;;;;;;;;20.18;65.44;97835.25;1872476;76;20439;-62
2021/05/17 09:41:08;;;;;;;;;;;;;;;20.18;65.32;97828.23;1847373;78;20100;-63
2021/05/17 09:43:58;;;;;;;;;;;;;;;20.07;65.52;97830.02;1873291;76;20351;-63
2021/05/17 09:47:08;;;;;;;;;;;;;;;19.95;65.85;97834.06;1892607;76;20395;-61
2021/05/17 09:49:46;;;;;;;;;;;;;;;19.77;65.96;97836.20;1837799;77;20211;-63
2021/05/17 09:52:28;;;;;;;;;;;;;;;19.63;66.72;97834.14;1892737;76;20211;-63
2021/05/17 09:55:07;;;;;;;;;;;;;;;19.49;67.30;97843.91;1873195;76;20224;-62
2021/05/17 09:57:49;;;;;;;;;;;;;;;19.44;67.79;97843.73;1892758;76;20362;-63
2021/05/17 10:00:34;;;;;;;;;;;;;;;19.35;68.27;97853.26;1863813;77;20238;-63
2021/05/17 10:03:09;;;;;;;;;;;;;;;19.29;68.60;97856.99;1873470;76;20098;-63
2021/05/17 10:05:49;;;;;;;;;;;;;;;19.12;68.86;97864.69;1892838;76;20105;-63
2021/05/17 10:08:43;;;;;;;;;;;;;;;18.98;69.83;97859.57;1865271;75;20156;-63
2021/05/17 10:11:29;;;;;;;;;;;;;;;18.84;70.60;97858.80;1856325;77;20225;-63
2021/05/17 10:14:03;;;;;;;;;;;;;;;18.80;71.34;97838.07;1892687;76;20208;-62
2021/05/17 10:16:40;;;;;;;;;;;;;;;18.64;72.50;97831.27;1873251;76;20383;-62
2021/05/17 10:19:16;;;;;;;;;;;;;;;18.48;73.46;97814.52;1873415;76;20102;-63
2021/05/17 10:21:50;;;;;;;;;;;;;;;18.34;74.93;97793.71;1892707;76;20211;-63
2021/05/17 10:24:37;;;;;;;;;;;;;;;18.14;76.02;97760.53;1863830;77;20233;-63
2021/05/17 10:27:12;;;;;;;;;;;;;;;18.00;77.54;97710.61;1873667;76;20454;-63
2021/05/17 10:29:48;;;;;;;;;;;;;;;17.82;79.25;97651.30;1865706;76;20222;-62
2021/05/17 10:32:29;;;;;;;;;;;;;;;17.62;80.27;97631.17;1891672;76;20429;-62
2021/05/17 10:35:13;;;;;;;;;;;;;;;17.44;81.68;97602.27;1892746;76;20215;-65
2021/05/17 10:38:20;;;;;;;;;;;;;;;17.25;83.30;97606.48;1863897;77;20229;-63
2021/05/17 10:41:00;;;;;;;;;;;;;;;17.19;84.40;97634.09;1843191;76;20475;-64
2021/05/17 10:46:59;;;;;;;;;;;;;;;17.11;85.43;97589.61;1855698;76;20277;-63
2021/05/17 10:49:34;;;;;;;;;;;;;;;17.13;85.70;97563.03;1867118;76;20229;-61
2021/05/17 10:52:13;;;;;;;;;;;;;;;17.18;85.24;97620.68;1858704;76;20113;-61
2021/05/17 10:55:02;;;;;;;;;;;;;;;17.34;84.82;97630.91;1856025;76;20115;-61
2021/05/17 11:00:45;;;;;;;;;;;;;;;17.77;83.97;97622.73;1857864;76;20648;-61
2021/05/17 11:03:21;;;;;;;;;;;;;;;17.94;82.58;97617.73;1867394;76;20117;-57
2021/05/17 11:06:15;;;;;;;;;;;;;;;18.17;82.17;97635.07;1856798;75;20152;-59
2021/05/17 11:08:50;;;;;;;;;;;;;;;18.28;81.57;97650.30;1864940;76;20118;-60
2021/05/17 11:11:24;;;;;;;;;;;;;;;18.41;80.73;97654.55;1866602;76;20373;-58
2021/05/17 11:14:19;;;;;;;;;;;;;;;18.55;80.04;97649.61;1858366;76;20113;-61
2021/05/17 11:16:59;;;;;;;;;;;;;;;18.76;79.42;97654.40;1854620;76;20231;-61
2021/05/17 11:19:33;;;;;;;;;;;;;;;18.94;77.58;97659.28;1869162;76;20227;-58
2021/05/17 11:22:20;;;;;;;;;;;;;;;19.00;77.08;97650.31;1845359;77;20139;-60
2021/05/17 11:24:55;;;;;;;;;;;;;;;19.22;76.28;97656.30;1846594;75;20202;-58
2021/05/17 11:27:45;;;;;;;;;;;;;;;19.47;75.99;97653.88;1860056;76;20109;-62
2021/05/17 11:30:39;;;;;;;;;;;;;;;19.77;74.07;97659.93;1856148;76;20122;-62
2021/05/17 11:33:19;;;;;;;;;;;;;;;19.92;73.30;97660.52;1884078;76;20223;-61
2021/05/17 11:36:12;;;;;;;;;;;;;;;19.84;72.48;97648.25;1863899;77;20146;-61
2021/05/17 11:39:11;;;;;;;;;;;;;;;19.69;72.97;97661.60;1873232;76;20094;-60
2021/05/17 11:41:55;;;;;;;;;;;;;;;19.67;73.49;97665.62;1873371;76;20102;-61
2021/05/17 11:44:54;;;;;;;;;;;;;;;19.78;73.02;97669.50;1854322;76;20227;-62
2021/05/17 11:47:31;;;;;;;;;;;;;;;19.71;72.18;97671.08;1864745;76;20488;-60
2021/05/17 11:50:08;;;;;;;;;;;;;;;19.51;72.36;97671.99;1873215;76;20094;-60
2021/05/17 11:52:46;;;;;;;;;;;;;;;19.29;72.12;97681.27;1873173;76;20101;-59
2021/05/17 11:55:19;;;;;;;;;;;;;;;19.02;73.06;97685.94;1892766;76;20208;-60
2021/05/17 11:57:56;;;;;;;;;;;;;;;18.77;74.02;97684.84;1887802;76;20362;-62
2021/05/17 12:00:31;;;;;;;;;;;;;;;18.63;74.95;97675.41;1864543;76;20115;-62
2021/05/17 12:03:17;;;;;;;;;;;;;;;18.44;76.12;97680.54;1827732;78;20145;-58
2021/05/17 12:06:01;;;;;;;;;;;;;;;18.36;76.97;97678.70;1866254;76;20113;-57
2021/05/17 12:08:36;;;;;;;;;;;;;;;18.28;77.06;97684.70;1868754;76;20187;-56
2021/05/17 12:11:13;;;;;;;;;;;;;;;18.21;77.97;97684.94;1873387;76;20212;-59
2021/05/17 12:13:48;;;;;;;;;;;;;;;18.18;78.46;97688.98;1842825;76;20373;-57
2021/05/17 12:16:34;;;;;;;;;;;;;;;18.15;78.93;97697.41;1801873;78;20327;-57
2021/05/17 12:19:11;;;;;;;;;;;;;;;18.26;79.45;97703.04;1858027;76;20225;-59
2021/05/17 12:21:45;;;;;;;;;;;;;;;18.33;79.46;97693.20;1892293;76;20151;-61
2021/05/17 12:24:28;;;;;;;;;;;;;;;18.37;79.57;97698.25;1866206;76;20117;-59
2021/05/17 12:27:17;;;;;;;;;;;;;;;18.35;79.77;97701.38;1834947;77;20398;-58
2021/05/17 12:30:01;;;;;;;;;;;;;;;18.46;79.37;97692.25;1852302;76;20249;-59
2021/05/17 12:32:53;;;;;;;;;;;;;;;18.54;78.98;97694.92;1858668;76;20222;-59
2021/05/17 12:35:30;;;;;;;;;;;;;;;18.61;78.90;97702.06;1870790;76;20265;-59
2021/05/17 12:38:15;;;;;;;;;;;;;;;18.70;78.82;97695.58;1873399;76;20093;-59
2021/05/17 12:40:50;;;;;;;;;;;;;;;18.82;78.64;97701.63;1871028;76;20466;-59
2021/05/17 12:43:37;;;;;;;;;;;;;;;18.99;78.14;97698.31;1835080;76;20238;-59
2021/05/17 12:46:13;;;;;;;;;;;;;;;19.08;77.55;97701.81;1873424;76;20101;-59
2021/05/17 12:48:49;;;;;;;;;;;;;;;19.11;77.45;97696.47;1874614;76;20113;-58
2021/05/17 12:51:35;;;;;;;;;;;;;;;19.10;76.88;97701.30;1841300;77;20308;-61
2021/05/17 12:54:19;;;;;;;;;;;;;;;19.22;77.18;97700.76;1892774;76;20097;-63
2021/05/17 12:56:55;;;;;;;;;;;;;;;19.33;76.75;97696.81;1892634;76;20151;-58
2021/05/17 12:59:30;;;;;;;;;;;;;;;19.21;76.68;97700.38;1873242;76;20109;-60
2021/05/17 13:02:11;;;;;;;;;;;;;;;19.15;76.61;97695.41;1816212;77;20376;-60
2021/05/17 13:04:49;;;;;;;;;;;;;;;19.16;76.80;97690.58;1860355;76;20226;-61
2021/05/17 13:07:55;;;;;;;;;;;;;;;19.11;76.64;97699.09;1833650;78;20176;-60
2021/05/17 13:10:30;;;;;;;;;;;;;;;19.13;77.19;97699.00;1892773;76;20215;-61
2021/05/17 13:13:04;;;;;;;;;;;;;;;19.19;77.14;97700.06;1873484;76;20347;-65
2021/05/17 13:15:38;;;;;;;;;;;;;;;19.22;77.25;97699.45;1892697;76;20096;-61
2021/05/17 13:18:12;;;;;;;;;;;;;;;19.18;76.79;97700.48;1865012;76;20231;-60
2021/05/17 13:20:51;;;;;;;;;;;;;;;19.09;76.83;97703.53;1862067;76;20369;-62
2021/05/17 13:32:09;;;;;;;;;;;;;;;18.86;78.19;97688.38;1873042;76;20426;-62
2021/05/17 13:34:43;;;;;;;;;;;;;;;18.85;78.54;97690.61;1872810;76;20355;-63
2021/05/17 13:37:29;;;;;;;;;;;;;;;18.82;78.68;97692.02;1828911;77;20249;-63
2021/05/17 13:40:06;;;;;;;;;;;;;;;18.94;78.72;97685.43;1856706;76;20230;-62
2021/05/17 13:42:40;;;;;;;;;;;;;;;18.97;78.57;97682.67;1873489;76;20113;-62
2021/05/17 13:45:16;;;;;;;;;;;;;;;19.00;78.50;97680.38;1892795;76;20096;-62
2021/05/17 13:47:50;;;;;;;;;;;;;;;18.97;78.46;97688.38;1849684;76;20116;-61
2021/05/17 13:50:36;;;;;;;;;;;;;;;18.94;78.49;97692.43;1803178;78;20496;-60
2021/05/17 13:53:10;;;;;;;;;;;;;;;19.04;78.71;97697.66;1891997;76;20207;-60
2021/05/17 13:55:47;;;;;;;;;;;;;;;19.07;78.41;97687.05;1855428;76;20368;-61
2021/05/17 13:58:32;;;;;;;;;;;;;;;19.03;78.26;97694.19;1805951;78;20161;-61
2021/05/17 14:01:08;;;;;;;;;;;;;;;18.95;78.21;97690.19;1873238;76;20101;-61
2021/05/17 14:03:42;;;;;;;;;;;;;;;18.87;78.25;97690.52;1890367;76;20113;-63
2021/05/17 14:06:23;;;;;;;;;;;;;;;18.89;78.26;97687.86;1872631;76;20340;-62
2021/05/17 14:08:58;;;;;;;;;;;;;;;18.93;78.29;97690.28;1868364;76;20295;-61
2021/05/17 14:11:32;;;;;;;;;;;;;;;18.98;78.42;97688.75;1845409;76;20231;-60
2021/05/17 14:14:07;;;;;;;;;;;;;;;18.98;78.56;97687.44;1873406;76;20097;-61
2021/05/17 14:16:43;;;;;;;;;;;;;;;18.88;78.52;97684.41;1873450;76;20347;-61
2021/05/17 14:19:17;;;;;;;;;;;;;;;18.77;78.41;97682.22;1873338;76;20097;-62
2021/05/17 14:21:54;;;;;;;;;;;;;;;18.68;78.59;97685.67;1841316;76;20115;-62
2021/05/17 14:24:40;;;;;;;;;;;;;;;18.48;78.74;97690.42;1798440;78;20224;-61